createdAt,value
2019-01-23T00:01:32.094Z,37.77
2019-01-23T00:04:13.045Z,40.57
2019-01-23T00:09:51.903Z,41.90
2019-01-23T00:12:35.986Z,39.70
2019-01-23T00:15:17.059Z,40.27
2019-01-23T00:17:57.923Z,37.97
2019-01-23T00:20:40.957Z,39.23
2019-01-23T00:23:09.660Z,41.93
2019-01-23T00:25:57.478Z,44.10
2019-01-23T00:28:45.276Z,41.37
2019-01-23T00:31:33.072Z,41.47
2019-01-23T00:34:20.860Z,41.80
2019-01-23T00:37:27.848Z,41.23
2019-01-23T00:40:17.787Z,39.77
2019-01-23T00:43:05.814Z,40.90
2019-01-23T00:45:46.537Z,40.80
2019-01-23T00:48:27.505Z,44.63
2019-01-23T00:51:08.414Z,41.90
2019-01-23T00:53:49.374Z,40.13
2019-01-23T00:56:32.794Z,45.07
2019-01-23T00:59:13.609Z,44.40
2019-01-23T01:01:54.676Z,44.73
2019-01-23T01:04:35.228Z,42.70
2019-01-23T01:07:16.036Z,42.10
2019-01-23T01:09:56.520Z,43.50
2019-01-23T01:12:24.944Z,41.13
2019-01-23T01:15:13.445Z,42.80
2019-01-23T01:18:02.380Z,45.63
2019-01-23T01:20:50.180Z,44.90
2019-01-23T01:23:37.962Z,45.00
2019-01-23T01:26:25.775Z,42.87
2019-01-23T01:29:13.924Z,43.80
2019-01-23T01:32:01.717Z,44.83
2019-01-23T01:34:49.531Z,42.80
2019-01-23T01:37:37.337Z,44.50
2019-01-23T01:40:25.187Z,45.17
2019-01-23T01:43:12.969Z,45.10
2019-01-23T01:45:54.513Z,44.17
2019-01-23T01:48:35.021Z,47.13
2019-01-23T01:51:16.032Z,47.77
2019-01-23T01:53:57.038Z,45.40
2019-01-23T01:56:37.965Z,44.77
2019-01-23T01:59:18.891Z,44.70
2019-01-23T02:01:59.883Z,42.80
2019-01-23T02:04:40.304Z,44.33
2019-01-23T02:06:59.018Z,45.77
2019-01-23T02:09:47.079Z,46.97
2019-01-23T02:12:34.981Z,45.87
2019-01-23T02:15:22.898Z,43.20
2019-01-23T02:18:10.718Z,42.63
2019-01-23T02:24:07.777Z,45.77
2019-01-23T02:26:55.551Z,42.53
2019-01-23T02:29:43.369Z,44.03
2019-01-23T02:32:31.178Z,47.73
2019-01-23T02:34:59.640Z,47.67
2019-01-23T02:37:47.982Z,46.33
2019-01-23T02:40:36.031Z,47.07
2019-01-23T02:43:23.969Z,46.90
2019-01-23T02:46:11.755Z,48.10
2019-01-23T02:49:00.479Z,48.57
2019-01-23T02:51:28.917Z,48.80
2019-01-23T02:54:10.152Z,49.80
2019-01-23T02:56:50.610Z,48.00
2019-01-23T02:59:31.525Z,49.97
2019-01-23T03:02:12.056Z,47.00
2019-01-23T03:04:53.425Z,48.77
2019-01-23T03:07:33.796Z,53.83
2019-01-23T03:10:14.411Z,50.53
2019-01-23T03:12:55.268Z,52.83
2019-01-23T03:15:36.298Z,48.63
2019-01-23T03:18:17.025Z,47.97
2019-01-23T03:20:57.441Z,51.00
2019-01-23T03:23:38.435Z,50.57
2019-01-23T03:26:18.829Z,49.53
2019-01-23T03:31:30.218Z,53.87
2019-01-23T03:34:18.062Z,53.50
2019-01-23T03:37:05.886Z,52.37
2019-01-23T03:39:54.953Z,52.07
2019-01-23T03:42:42.751Z,55.10
2019-01-23T03:45:23.089Z,54.27
2019-01-23T03:48:03.647Z,54.70
2019-01-23T03:50:44.052Z,52.17
2019-01-23T03:53:25.049Z,54.80
2019-01-23T03:56:05.578Z,52.93
2019-01-23T03:58:45.910Z,50.50
2019-01-23T04:01:26.436Z,51.07
2019-01-23T04:04:07.323Z,53.60
2019-01-23T04:06:47.965Z,57.27
2019-01-23T04:09:28.796Z,55.00
2019-01-23T04:12:10.146Z,58.17
2019-01-23T04:14:50.956Z,56.53
2019-01-23T04:17:31.885Z,53.97
2019-01-23T04:20:12.721Z,53.27
2019-01-23T04:22:53.767Z,54.57
2019-01-23T04:25:34.735Z,52.87
2019-01-23T04:28:15.530Z,56.77
2019-01-23T04:30:56.250Z,53.10
2019-01-23T04:33:37.311Z,56.23
2019-01-23T04:36:06.020Z,56.17
2019-01-23T04:38:53.841Z,57.23
2019-01-23T04:41:41.604Z,55.20
2019-01-23T04:44:29.398Z,56.67
2019-01-23T04:49:44.456Z,59.47
2019-01-23T04:55:30.011Z,57.67
2019-01-23T04:57:58.441Z,52.43
2019-01-23T05:00:46.255Z,53.13
2019-01-23T05:03:34.036Z,58.70
2019-01-23T05:06:21.819Z,56.37
2019-01-23T05:09:09.640Z,53.73
2019-01-23T05:11:57.439Z,56.80
2019-01-23T05:14:45.251Z,54.63
2019-01-23T05:17:33.129Z,56.10
2019-01-23T05:20:20.954Z,54.80
2019-01-23T05:23:08.781Z,53.27
2019-01-23T05:25:56.581Z,54.43
2019-01-23T05:28:44.341Z,57.00
2019-01-23T05:31:25.238Z,55.70
2019-01-23T05:34:06.051Z,53.17
2019-01-23T05:36:34.527Z,53.20
2019-01-23T05:39:22.550Z,55.17
2019-01-23T05:42:10.411Z,58.10
2019-01-23T05:44:58.239Z,54.53
2019-01-23T05:47:46.137Z,56.30
2019-01-23T05:50:26.690Z,55.40
2019-01-23T05:53:07.949Z,54.23
2019-01-23T05:55:48.698Z,53.80
2019-01-23T05:58:30.059Z,57.60
2019-01-23T06:00:58.539Z,52.90
2019-01-23T06:03:46.342Z,55.60
2019-01-23T06:06:34.161Z,52.83
2019-01-23T06:09:22.771Z,54.03
2019-01-23T06:12:11.485Z,55.93
2019-01-23T06:14:59.357Z,52.13
2019-01-23T06:17:47.369Z,57.67
2019-01-23T06:20:55.644Z,54.03
2019-01-23T06:23:43.509Z,56.70
2019-01-23T06:26:31.326Z,54.93
2019-01-23T06:29:19.146Z,54.13
2019-01-23T06:32:27.769Z,52.63
2019-01-23T06:35:15.714Z,54.10
2019-01-23T06:38:03.509Z,50.00
2019-01-23T06:40:51.417Z,56.07
2019-01-23T06:43:39.180Z,52.23
2019-01-23T06:46:27.045Z,55.27
2019-01-23T06:49:08.228Z,52.27
2019-01-23T06:51:36.712Z,55.73
2019-01-23T06:54:24.741Z,53.80
2019-01-23T06:57:12.542Z,55.27
2019-01-23T07:00:21.048Z,59.17
2019-01-23T07:03:08.841Z,49.97
2019-01-23T07:05:56.873Z,56.27
2019-01-23T07:08:44.694Z,60.37
2019-01-23T07:11:32.460Z,55.87
2019-01-23T07:14:20.416Z,54.67
2019-01-23T07:17:08.832Z,53.73
2019-01-23T07:19:56.865Z,55.60
2019-01-23T07:22:44.685Z,55.80
2019-01-23T07:25:13.263Z,53.40
2019-01-23T07:27:41.762Z,56.17
2019-01-23T07:30:50.347Z,50.13
2019-01-23T07:33:38.396Z,51.03
2019-01-23T07:36:06.858Z,53.50
2019-01-23T07:38:54.709Z,54.07
2019-01-23T07:41:42.580Z,51.50
2019-01-23T07:44:30.469Z,56.00
2019-01-23T07:47:18.725Z,53.40
2019-01-23T07:49:59.282Z,54.13
2019-01-23T07:52:40.058Z,57.07
2019-01-23T07:55:29.492Z,58.17
2019-01-23T07:58:17.601Z,56.00
2019-01-23T08:01:05.429Z,55.63
2019-01-23T08:03:53.207Z,52.80
2019-01-23T08:06:41.019Z,52.33
2019-01-23T08:09:28.962Z,51.60
2019-01-23T08:12:16.773Z,55.57
2019-01-23T08:15:25.323Z,54.87
2019-01-23T08:18:13.190Z,53.73
2019-01-23T08:20:41.653Z,52.37
2019-01-23T08:23:29.492Z,52.77
2019-01-23T08:26:17.269Z,53.27
2019-01-23T08:29:05.186Z,50.37
2019-01-23T08:31:53.029Z,53.17
2019-01-23T08:34:40.811Z,58.83
2019-01-23T08:37:28.611Z,51.00
2019-01-23T08:40:17.369Z,50.50
2019-01-23T08:43:05.919Z,52.33
2019-01-23T08:45:54.694Z,57.67
2019-01-23T08:48:23.132Z,56.77
2019-01-23T08:50:51.625Z,50.43
2019-01-23T08:53:39.664Z,51.13
2019-01-23T08:56:27.563Z,52.67
2019-01-23T08:59:15.403Z,57.87
2019-01-23T09:02:03.246Z,53.50
2019-01-23T09:04:51.267Z,57.40
2019-01-23T09:07:31.866Z,51.37
2019-01-23T09:10:12.664Z,50.10
2019-01-23T09:12:53.794Z,52.57
2019-01-23T09:15:32.599Z,55.47
2019-01-23T09:18:20.344Z,59.00
2019-01-23T09:21:08.182Z,49.30
2019-01-23T09:23:56.237Z,54.73
2019-01-23T09:26:24.681Z,54.23
2019-01-23T09:29:12.487Z,54.13
2019-01-23T09:32:19.622Z,54.33
2019-01-23T09:35:27.013Z,58.13
2019-01-23T09:38:16.476Z,56.90
2019-01-23T09:41:23.722Z,61.17
2019-01-23T09:44:32.315Z,59.90
2019-01-23T09:47:39.519Z,61.83
2019-01-23T09:50:51.450Z,56.43
2019-01-23T09:53:40.768Z,54.60
2019-01-23T09:56:28.646Z,57.80
2019-01-23T09:59:09.409Z,54.37
2019-01-23T10:01:27.308Z,56.47
2019-01-23T10:04:15.141Z,58.20
2019-01-23T10:07:03.003Z,58.03
2019-01-23T10:09:50.787Z,57.50
2019-01-23T10:12:38.599Z,56.27
2019-01-23T10:15:47.177Z,59.87
2019-01-23T10:18:34.948Z,61.00
2019-01-23T10:21:22.784Z,59.43
2019-01-23T10:24:10.565Z,56.77
2019-01-23T10:26:58.361Z,63.30
2019-01-23T10:29:46.125Z,57.17
2019-01-23T10:32:14.829Z,59.00
2019-01-23T10:35:02.745Z,63.07
2019-01-23T10:37:31.302Z,61.73
2019-01-23T10:40:19.177Z,61.47
2019-01-23T10:43:06.973Z,67.17
2019-01-23T10:45:57.614Z,60.30
2019-01-23T10:48:38.766Z,53.83
2019-01-23T10:51:07.217Z,65.87
2019-01-23T10:53:55.023Z,63.37
2019-01-23T10:56:23.630Z,59.33
2019-01-23T10:59:11.437Z,60.47
2019-01-23T11:01:59.344Z,58.43
2019-01-23T11:04:47.209Z,63.10
2019-01-23T11:07:35.188Z,60.97
2019-01-23T11:10:23.968Z,63.67
2019-01-23T11:13:11.945Z,62.87
2019-01-23T11:15:59.899Z,58.27
2019-01-23T11:18:48.011Z,58.83
2019-01-23T11:21:35.927Z,67.57
2019-01-23T11:24:23.721Z,64.13
2019-01-23T11:27:11.504Z,70.90
2019-01-23T11:30:13.379Z,67.63
2019-01-23T11:32:29.554Z,67.10
2019-01-23T11:35:24.648Z,62.27
2019-01-23T11:41:03.699Z,63.30
2019-01-23T11:43:51.868Z,69.53
2019-01-23T11:46:39.801Z,65.47
2019-01-23T11:52:04.180Z,66.20
2019-01-23T11:54:32.698Z,62.93
2019-01-23T12:03:10.612Z,65.40
2019-01-23T12:05:58.437Z,64.20
2019-01-23T12:08:46.229Z,64.80
2019-01-23T12:11:34.068Z,61.50
2019-01-23T12:14:22.168Z,59.77
2019-01-23T12:17:11.479Z,59.90
2019-01-23T12:19:59.355Z,62.17
2019-01-23T12:22:59.656Z,66.07
2019-01-23T12:25:17.992Z,62.27
2019-01-23T12:28:06.020Z,56.37
2019-01-23T12:31:18.852Z,62.40
2019-01-23T12:34:04.378Z,64.97
2019-01-23T12:37:14.767Z,61.53
2019-01-23T12:40:03.243Z,58.10
2019-01-23T12:46:24.831Z,65.43
2019-01-23T12:51:49.497Z,60.33
2019-01-23T12:54:30.781Z,58.27
2019-01-23T12:57:11.985Z,61.60
2019-01-23T12:59:52.888Z,64.10
2019-01-23T13:02:35.314Z,61.77
2019-01-23T13:05:16.163Z,70.47
2019-01-23T13:07:57.157Z,59.43
2019-01-23T13:10:37.722Z,59.93
2019-01-23T13:13:19.292Z,63.23
2019-01-23T13:16:00.404Z,65.63
2019-01-23T13:18:28.944Z,61.90
2019-01-23T13:21:37.413Z,35.40
2019-01-23T13:24:25.201Z,62.07
2019-01-23T13:30:47.804Z,63.53
2019-01-23T13:33:35.600Z,67.50
2019-01-23T13:36:23.488Z,68.00
2019-01-23T13:39:11.307Z,62.60
2019-01-23T13:41:59.070Z,66.63
2019-01-23T13:44:46.821Z,66.93
2019-01-23T13:47:34.612Z,72.10
2019-01-23T13:50:17.717Z,59.80
2019-01-23T13:52:58.894Z,59.60
2019-01-23T13:58:23.121Z,60.80
2019-01-23T14:01:07.662Z,61.03
2019-01-23T14:03:52.569Z,56.57
2019-01-23T14:06:34.062Z,61.97
2019-01-23T14:09:16.779Z,56.23
2019-01-23T14:11:58.477Z,56.33
2019-01-23T14:14:39.103Z,72.80
2019-01-23T14:17:19.890Z,60.20
2019-01-23T14:19:48.316Z,62.57
2019-01-23T14:22:36.061Z,59.93
2019-01-23T14:25:23.972Z,57.33
2019-01-23T14:28:11.737Z,64.00
2019-01-23T14:30:59.517Z,60.73
2019-01-23T14:33:47.268Z,61.50
2019-01-23T14:36:35.209Z,67.70
2019-01-23T14:39:22.961Z,66.70
2019-01-23T14:42:04.232Z,60.40
2019-01-23T14:44:44.677Z,61.50
2019-01-23T14:47:25.508Z,71.53
2019-01-23T14:50:05.797Z,61.37
2019-01-23T14:52:46.721Z,64.03
2019-01-23T14:55:27.969Z,61.07
2019-01-23T14:58:08.905Z,60.57
2019-01-23T15:00:50.076Z,60.70
2019-01-23T15:03:30.960Z,58.30
2019-01-23T15:06:12.017Z,59.57
2019-01-23T15:08:52.540Z,60.07
2019-01-23T15:17:30.103Z,63.13
2019-01-23T15:20:10.781Z,65.57
2019-01-23T15:22:51.374Z,65.50
2019-01-23T15:25:31.797Z,68.67
2019-01-23T15:28:12.427Z,69.20
2019-01-23T15:30:53.290Z,65.97
2019-01-23T15:33:33.902Z,66.17
2019-01-23T15:36:14.492Z,69.47
2019-01-23T15:38:55.120Z,66.10
2019-01-23T15:41:35.945Z,72.00
2019-01-23T15:44:19.044Z,69.53
2019-01-23T15:46:59.840Z,74.80
2019-01-23T15:49:40.809Z,72.43
2019-01-23T15:52:21.491Z,69.17
2019-01-23T15:55:02.133Z,68.23
2019-01-23T15:57:43.457Z,71.13
2019-01-23T16:00:24.003Z,73.17
2019-01-23T16:03:05.504Z,72.60
2019-01-23T16:05:45.744Z,74.83
2019-01-23T16:08:14.190Z,73.40
2019-01-23T16:11:02.016Z,75.30
2019-01-23T16:13:49.767Z,75.37
2019-01-23T16:16:37.565Z,71.63
2019-01-23T16:19:37.470Z,71.27
2019-01-23T16:22:15.049Z,76.67
2019-01-23T16:27:57.781Z,73.17
2019-01-23T16:30:45.536Z,74.87
2019-01-23T16:33:33.333Z,77.97
2019-01-23T16:36:21.094Z,75.60
2019-01-23T16:39:09.359Z,73.63
2019-01-23T16:41:38.484Z,69.97
2019-01-23T16:44:26.427Z,81.93
2019-01-23T16:47:14.202Z,74.77
2019-01-23T16:50:01.895Z,76.77
2019-01-23T16:52:42.521Z,75.27
2019-01-23T16:55:11.150Z,82.87
2019-01-23T16:58:00.232Z,76.93
2019-01-23T17:00:29.709Z,79.47
2019-01-23T17:03:17.484Z,80.77
2019-01-23T17:06:05.324Z,90.20
2019-01-23T17:08:53.139Z,81.93
2019-01-23T17:11:41.204Z,79.33
2019-01-23T17:14:29.228Z,85.27
2019-01-23T17:17:17.052Z,82.50
2019-01-23T17:20:25.609Z,84.40
2019-01-23T17:23:13.350Z,79.50
2019-01-23T17:26:01.133Z,76.73
2019-01-23T17:28:48.927Z,88.43
2019-01-23T17:31:36.701Z,83.10
2019-01-23T17:34:24.477Z,87.27
2019-01-23T17:37:12.257Z,83.17
2019-01-23T17:40:00.022Z,82.70
2019-01-23T17:45:56.510Z,88.60
2019-01-23T17:48:44.383Z,84.00
2019-01-23T17:51:32.148Z,89.23
2019-01-23T17:54:20.162Z,88.97
2019-01-23T17:57:08.090Z,90.37
2019-01-23T17:59:56.027Z,88.43
2019-01-23T18:02:43.765Z,98.33
2019-01-23T18:05:31.694Z,93.37
2019-01-23T18:08:20.009Z,90.17
2019-01-23T18:11:07.760Z,96.00
2019-01-23T18:13:55.533Z,91.40
2019-01-23T18:16:43.423Z,101.13
2019-01-23T18:19:31.192Z,103.00
2019-01-23T18:22:18.997Z,99.70
2019-01-23T18:25:07.673Z,93.43
2019-01-23T18:27:55.425Z,95.03
2019-01-23T18:31:02.570Z,94.43
2019-01-23T18:34:09.671Z,102.90
2019-01-23T18:37:18.451Z,95.17
2019-01-23T18:40:25.645Z,100.63
2019-01-23T18:43:32.799Z,95.00
2019-01-23T18:46:39.909Z,102.53
2019-01-23T18:49:47.052Z,104.07
2019-01-23T18:52:28.225Z,102.23
2019-01-23T18:55:09.009Z,97.73
2019-01-23T18:57:49.794Z,96.50
2019-01-23T19:00:30.610Z,98.23
2019-01-23T19:03:11.524Z,100.97
2019-01-23T19:05:52.028Z,99.73
2019-01-23T19:08:32.502Z,97.87
2019-01-23T19:11:12.970Z,98.37
2019-01-23T19:13:53.633Z,100.00
2019-01-23T19:16:34.678Z,102.50
2019-01-23T19:19:15.921Z,102.03
2019-01-23T19:21:56.755Z,97.80
2019-01-23T19:24:37.704Z,99.17
2019-01-23T19:27:18.219Z,105.63
2019-01-23T19:30:08.905Z,105.43
2019-01-23T19:32:44.799Z,105.27
2019-01-23T19:35:28.021Z,102.67
2019-01-23T19:38:08.412Z,102.00
2019-01-23T19:40:49.637Z,102.47
2019-01-23T19:43:29.993Z,107.00
2019-01-23T19:46:11.166Z,110.57
2019-01-23T19:48:52.364Z,101.83
2019-01-23T19:51:32.920Z,112.37
2019-01-23T19:54:16.569Z,104.67
2019-01-23T19:56:57.822Z,106.80
2019-01-23T19:59:38.556Z,108.57
2019-01-23T20:02:19.249Z,105.60
2019-01-23T20:05:00.196Z,108.70
2019-01-23T20:07:41.872Z,104.27
2019-01-23T20:10:23.167Z,113.37
2019-01-23T20:13:03.821Z,108.73
2019-01-23T20:15:44.871Z,103.57
2019-01-23T20:18:25.490Z,104.90
2019-01-23T20:21:06.381Z,107.63
2019-01-23T20:23:47.605Z,105.73
2019-01-23T20:26:28.363Z,106.77
2019-01-23T20:29:09.154Z,109.93
2019-01-23T20:31:49.978Z,113.27
2019-01-23T20:34:30.988Z,110.30
2019-01-23T20:37:11.790Z,109.27
2019-01-23T20:39:52.556Z,108.90
2019-01-23T20:42:33.418Z,114.23
2019-01-23T20:45:14.386Z,103.63
2019-01-23T20:47:55.348Z,112.43
2019-01-23T20:50:36.133Z,113.80
2019-01-23T20:53:17.129Z,110.87
2019-01-23T20:55:57.548Z,112.50
2019-01-23T20:58:38.251Z,115.57
2019-01-23T21:01:18.926Z,112.70
2019-01-23T21:03:59.426Z,112.43
2019-01-23T21:06:39.905Z,111.77
2019-01-23T21:09:20.576Z,114.27
2019-01-23T21:12:01.125Z,112.00
2019-01-23T21:14:41.642Z,114.00
2019-01-23T21:17:22.441Z,117.07
2019-01-23T21:20:03.208Z,110.20
2019-01-23T21:22:44.016Z,123.77
2019-01-23T21:25:24.304Z,112.73
2019-01-23T21:28:05.012Z,115.17
2019-01-23T21:30:45.532Z,117.90
2019-01-23T21:33:26.356Z,119.30
2019-01-23T21:36:06.951Z,116.20
2019-01-23T21:38:47.618Z,127.17
2019-01-23T21:41:28.194Z,130.77
2019-01-23T21:44:08.968Z,134.50
2019-01-23T21:46:49.630Z,126.37
2019-01-23T21:49:30.605Z,141.73
2019-01-23T21:52:11.296Z,136.90
2019-01-23T21:54:52.494Z,128.93
2019-01-23T21:57:33.726Z,137.10
2019-01-23T22:00:15.284Z,127.40
2019-01-23T22:02:56.316Z,129.60
2019-01-23T22:05:38.116Z,138.97
2019-01-23T22:08:18.944Z,137.83
2019-01-23T22:11:00.061Z,133.80
2019-01-23T22:13:40.549Z,130.73
2019-01-23T22:16:21.973Z,133.30
2019-01-23T22:19:02.501Z,132.03
2019-01-23T22:21:43.336Z,142.17
2019-01-23T22:24:24.405Z,139.07
2019-01-23T22:27:05.384Z,133.40
2019-01-23T22:29:46.002Z,141.70
2019-01-23T22:32:26.661Z,126.80
2019-01-23T22:35:07.036Z,133.03
2019-01-23T22:37:48.078Z,117.80
2019-01-23T22:40:28.777Z,126.70
2019-01-23T22:43:14.978Z,135.77
2019-01-23T22:45:52.149Z,130.10
2019-01-23T22:48:32.843Z,128.33
2019-01-23T22:51:14.180Z,134.83
2019-01-23T22:53:54.682Z,121.00
2019-01-23T22:56:35.485Z,127.07
2019-01-23T22:59:16.451Z,125.30
2019-01-23T23:01:57.871Z,120.17
2019-01-23T23:04:38.312Z,122.27
2019-01-23T23:07:19.222Z,120.37
2019-01-23T23:10:00.426Z,108.77
2019-01-23T23:12:41.187Z,117.03
2019-01-23T23:15:22.285Z,109.93
2019-01-23T23:18:03.064Z,116.77
2019-01-23T23:20:43.629Z,124.53
2019-01-23T23:23:24.542Z,111.63
2019-01-23T23:26:05.417Z,107.77
2019-01-23T23:28:45.920Z,108.87
2019-01-23T23:31:29.392Z,103.20
2019-01-23T23:34:10.349Z,99.33
2019-01-23T23:36:50.936Z,96.07
2019-01-23T23:39:31.833Z,103.20
2019-01-23T23:42:14.114Z,92.63
2019-01-23T23:44:55.495Z,92.97
2019-01-23T23:47:36.577Z,98.63
2019-01-23T23:50:17.296Z,94.77
2019-01-23T23:58:42.045Z,90.93
